sensor_id;sensor_type;location;lat;lon;timestamp;pressure;altitude;pressure_sealevel;temperature;humidity
16120;BME280;12670;53.502;10.252;2023-06-26T00:01:47;101072.38;;;22.12;100.00
16120;BME280;12670;53.502;10.252;2023-06-26T00:04:49;101071.25;;;22.14;100.00
16120;BME280;12670;53.502;10.252;2023-06-26T00:07:56;101073.81;;;22.16;100.00
16120;BME280;12670;53.502;10.252;2023-06-26T00:11:01;101071.84;;;22.18;100.00
16120;BME280;12670;53.502;10.252;2023-06-26T00:14:04;101067.88;;;22.22;100.00
16120;BME280;12670;53.502;10.252;2023-06-26T00:17:07;101058.34;;;22.18;100.00
16120;BME280;12670;53.502;10.252;2023-06-26T00:20:10;101065.94;;;22.24;100.00
16120;BME280;12670;53.502;10.252;2023-06-26T00:23:16;101054.13;;;22.25;100.00
16120;BME280;12670;53.502;10.252;2023-06-26T00:26:18;101061.69;;;22.31;100.00
16120;BME280;12670;53.502;10.252;2023-06-26T00:29:21;101063.69;;;22.29;100.00
16120;BME280;12670;53.502;10.252;2023-06-26T00:32:24;101054.06;;;22.36;100.00
16120;BME280;12670;53.502;10.252;2023-06-26T00:35:27;101060.00;;;22.30;100.00
16120;BME280;12670;53.502;10.252;2023-06-26T00:38:31;101061.94;;;22.28;100.00
16120;BME280;12670;53.502;10.252;2023-06-26T00:41:34;101047.19;;;22.32;100.00
16120;BME280;12670;53.502;10.252;2023-06-26T00:44:36;101046.16;;;22.23;100.00
16120;BME280;12670;53.502;10.252;2023-06-26T00:47:39;101051.28;;;22.26;100.00
16120;BME280;12670;53.502;10.252;2023-06-26T00:50:42;101042.31;;;22.26;100.00
16120;BME280;12670;53.502;10.252;2023-06-26T00:53:47;101045.16;;;22.24;100.00
16120;BME280;12670;53.502;10.252;2023-06-26T00:56:50;101037.44;;;22.20;100.00
16120;BME280;12670;53.502;10.252;2023-06-26T00:59:53;101036.84;;;22.16;100.00
16120;BME280;12670;53.502;10.252;2023-06-26T01:02:56;101035.25;;;22.14;100.00
16120;BME280;12670;53.502;10.252;2023-06-26T01:06:01;101027.16;;;22.14;100.00
16120;BME280;12670;53.502;10.252;2023-06-26T01:09:05;101031.22;;;22.08;100.00
16120;BME280;12670;53.502;10.252;2023-06-26T01:12:08;101026.16;;;22.15;100.00
16120;BME280;12670;53.502;10.252;2023-06-26T01:15:11;101020.91;;;22.13;100.00
16120;BME280;12670;53.502;10.252;2023-06-26T01:18:15;101017.59;;;22.09;100.00
16120;BME280;12670;53.502;10.252;2023-06-26T01:21:18;101018.69;;;22.07;100.00
16120;BME280;12670;53.502;10.252;2023-06-26T01:24:25;101008.56;;;21.99;100.00
16120;BME280;12670;53.502;10.252;2023-06-26T01:27:35;101010.25;;;22.00;100.00
16120;BME280;12670;53.502;10.252;2023-06-26T01:30:42;101008.94;;;21.95;100.00
16120;BME280;12670;53.502;10.252;2023-06-26T01:33:46;101014.06;;;21.98;100.00
16120;BME280;12670;53.502;10.252;2023-06-26T01:36:49;101009.06;;;21.93;100.00
16120;BME280;12670;53.502;10.252;2023-06-26T01:39:52;101009.50;;;21.98;100.00
16120;BME280;12670;53.502;10.252;2023-06-26T01:42:56;101011.03;;;21.91;100.00
16120;BME280;12670;53.502;10.252;2023-06-26T01:46:03;101003.53;;;21.95;100.00
16120;BME280;12670;53.502;10.252;2023-06-26T01:49:11;100997.13;;;21.96;100.00
16120;BME280;12670;53.502;10.252;2023-06-26T01:52:20;101003.69;;;21.93;100.00
16120;BME280;12670;53.502;10.252;2023-06-26T01:55:30;100991.13;;;21.92;100.00
16120;BME280;12670;53.502;10.252;2023-06-26T01:58:41;100985.00;;;21.90;100.00
16120;BME280;12670;53.502;10.252;2023-06-26T02:01:45;100981.94;;;21.95;100.00
16120;BME280;12670;53.502;10.252;2023-06-26T02:04:49;100976.91;;;21.90;100.00
16120;BME280;12670;53.502;10.252;2023-06-26T02:07:52;100976.59;;;21.83;100.00
16120;BME280;12670;53.502;10.252;2023-06-26T02:10:54;100961.94;;;21.86;100.00
16120;BME280;12670;53.502;10.252;2023-06-26T02:13:58;100961.22;;;21.84;100.00
16120;BME280;12670;53.502;10.252;2023-06-26T02:17:01;100961.22;;;21.84;100.00
16120;BME280;12670;53.502;10.252;2023-06-26T02:20:04;100959.78;;;21.80;100.00
16120;BME280;12670;53.502;10.252;2023-06-26T02:23:10;100961.63;;;21.79;100.00
16120;BME280;12670;53.502;10.252;2023-06-26T02:26:14;100965.78;;;21.83;100.00
16120;BME280;12670;53.502;10.252;2023-06-26T02:29:18;100964.19;;;21.81;100.00
16120;BME280;12670;53.502;10.252;2023-06-26T02:32:20;100957.50;;;21.75;100.00
16120;BME280;12670;53.502;10.252;2023-06-26T02:35:23;100964.00;;;21.73;100.00
16120;BME280;12670;53.502;10.252;2023-06-26T02:38:26;100962.88;;;21.75;100.00
16120;BME280;12670;53.502;10.252;2023-06-26T02:41:28;100953.78;;;21.76;100.00
16120;BME280;12670;53.502;10.252;2023-06-26T02:44:32;100953.66;;;21.78;100.00
16120;BME280;12670;53.502;10.252;2023-06-26T02:47:35;100938.69;;;21.74;100.00
16120;BME280;12670;53.502;10.252;2023-06-26T02:50:41;100941.16;;;21.77;100.00
16120;BME280;12670;53.502;10.252;2023-06-26T02:53:47;100929.88;;;21.72;100.00
16120;BME280;12670;53.502;10.252;2023-06-26T02:56:49;100944.09;;;21.74;100.00
16120;BME280;12670;53.502;10.252;2023-06-26T02:59:53;100936.97;;;21.73;100.00
16120;BME280;12670;53.502;10.252;2023-06-26T03:02:56;100936.50;;;21.68;100.00
16120;BME280;12670;53.502;10.252;2023-06-26T03:05:59;100938.59;;;21.75;100.00
16120;BME280;12670;53.502;10.252;2023-06-26T03:09:02;100938.44;;;21.77;100.00
16120;BME280;12670;53.502;10.252;2023-06-26T03:12:05;100936.84;;;21.74;100.00
16120;BME280;12670;53.502;10.252;2023-06-26T03:15:10;100928.16;;;21.71;100.00
16120;BME280;12670;53.502;10.252;2023-06-26T03:18:13;100933.19;;;21.75;100.00
16120;BME280;12670;53.502;10.252;2023-06-26T03:21:17;100928.16;;;21.71;100.00
16120;BME280;12670;53.502;10.252;2023-06-26T03:24:20;100921.91;;;21.70;100.00
16120;BME280;12670;53.502;10.252;2023-06-26T03:27:23;100925.00;;;21.66;100.00
16120;BME280;12670;53.502;10.252;2023-06-26T03:30:27;100917.03;;;21.64;100.00
16120;BME280;12670;53.502;10.252;2023-06-26T03:33:29;100921.78;;;21.72;100.00
16120;BME280;12670;53.502;10.252;2023-06-26T03:36:32;100916.63;;;21.69;100.00
16120;BME280;12670;53.502;10.252;2023-06-26T03:39:35;100914.41;;;21.53;100.00
16120;BME280;12670;53.502;10.252;2023-06-26T03:42:37;100909.66;;;21.66;100.00
16120;BME280;12670;53.502;10.252;2023-06-26T03:45:41;100917.75;;;21.66;100.00
16120;BME280;12670;53.502;10.252;2023-06-26T03:48:44;100917.63;;;21.68;100.00
16120;BME280;12670;53.502;10.252;2023-06-26T03:51:47;100914.19;;;21.66;100.00
16120;BME280;12670;53.502;10.252;2023-06-26T03:54:49;100913.69;;;21.72;100.00
16120;BME280;12670;53.502;10.252;2023-06-26T03:57:52;100900.31;;;21.70;100.00
16120;BME280;12670;53.502;10.252;2023-06-26T04:00:56;100898.72;;;21.68;100.00
16120;BME280;12670;53.502;10.252;2023-06-26T04:04:00;100887.19;;;21.66;100.00
16120;BME280;12670;53.502;10.252;2023-06-26T04:07:02;100887.06;;;21.67;100.00
16120;BME280;12670;53.502;10.252;2023-06-26T04:10:06;100892.59;;;21.66;100.00
16120;BME280;12670;53.502;10.252;2023-06-26T04:13:09;100888.66;;;21.70;100.00
16120;BME280;12670;53.502;10.252;2023-06-26T04:16:13;100885.81;;;21.71;100.00
16120;BME280;12670;53.502;10.252;2023-06-26T04:19:17;100881.66;;;21.67;100.00
16120;BME280;12670;53.502;10.252;2023-06-26T04:22:19;100886.91;;;21.69;100.00
16120;BME280;12670;53.502;10.252;2023-06-26T04:25:22;100882.72;;;21.76;100.00
16120;BME280;12670;53.502;10.252;2023-06-26T04:28:25;100873.50;;;21.78;100.00
16120;BME280;12670;53.502;10.252;2023-06-26T04:31:29;100873.81;;;21.85;100.00
16120;BME280;12670;53.502;10.252;2023-06-26T04:34:31;100872.81;;;21.86;100.00
16120;BME280;12670;53.502;10.252;2023-06-26T04:37:36;100870.84;;;21.88;100.00
16120;BME280;12670;53.502;10.252;2023-06-26T04:40:40;100870.56;;;21.91;100.00
16120;BME280;12670;53.502;10.252;2023-06-26T04:43:42;100865.47;;;21.98;100.00
16120;BME280;12670;53.502;10.252;2023-06-26T04:46:46;100863.75;;;21.87;100.00
16120;BME280;12670;53.502;10.252;2023-06-26T04:49:49;100870.09;;;22.07;100.00
16120;BME280;12670;53.502;10.252;2023-06-26T04:52:52;100861.63;;;22.12;100.00
16120;BME280;12670;53.502;10.252;2023-06-26T04:55:55;100850.25;;;22.18;100.00
16120;BME280;12670;53.502;10.252;2023-06-26T04:58:57;100852.50;;;22.13;100.00
16120;BME280;12670;53.502;10.252;2023-06-26T05:02:01;100846.81;;;22.16;100.00
16120;BME280;12670;53.502;10.252;2023-06-26T05:05:05;100853.22;;;22.15;100.00
16120;BME280;12670;53.502;10.252;2023-06-26T05:08:14;100838.91;;;22.24;100.00
16120;BME280;12670;53.502;10.252;2023-06-26T05:11:17;100834.41;;;22.34;100.00
16120;BME280;12670;53.502;10.252;2023-06-26T05:14:20;100832.66;;;22.33;100.00
16120;BME280;12670;53.502;10.252;2023-06-26T05:17:27;100833.56;;;22.43;100.00
16120;BME280;12670;53.502;10.252;2023-06-26T05:20:30;100828.72;;;22.56;100.00
16120;BME280;12670;53.502;10.252;2023-06-26T05:23:33;100830.03;;;22.62;99.13
16120;BME280;12670;53.502;10.252;2023-06-26T05:26:37;100829.03;;;22.63;100.00
16120;BME280;12670;53.502;10.252;2023-06-26T05:29:40;100816.94;;;22.67;97.99
16120;BME280;12670;53.502;10.252;2023-06-26T05:32:46;100825.91;;;22.68;99.55
16120;BME280;12670;53.502;10.252;2023-06-26T05:35:51;100819.25;;;22.72;96.50
16120;BME280;12670;53.502;10.252;2023-06-26T05:38:54;100810.41;;;22.79;97.21
16120;BME280;12670;53.502;10.252;2023-06-26T05:41:58;100805.28;;;22.86;95.37
16120;BME280;12670;53.502;10.252;2023-06-26T05:45:01;100807.75;;;23.08;96.81
16120;BME280;12670;53.502;10.252;2023-06-26T05:48:05;100808.16;;;23.13;93.80
16120;BME280;12670;53.502;10.252;2023-06-26T05:51:09;100796.06;;;23.18;91.13
16120;BME280;12670;53.502;10.252;2023-06-26T05:54:12;100790.34;;;23.30;94.92
16120;BME280;12670;53.502;10.252;2023-06-26T05:57:15;100786.78;;;23.39;91.00
16120;BME280;12670;53.502;10.252;2023-06-26T06:00:19;100792.31;;;23.48;88.08
16120;BME280;12670;53.502;10.252;2023-06-26T06:03:23;100787.16;;;23.54;88.00
16120;BME280;12670;53.502;10.252;2023-06-26T06:06:26;100787.00;;;23.65;88.92
16120;BME280;12670;53.502;10.252;2023-06-26T06:09:29;100785.00;;;23.67;89.50
16120;BME280;12670;53.502;10.252;2023-06-26T06:12:32;100784.78;;;23.88;90.56
16120;BME280;12670;53.502;10.252;2023-06-26T06:15:34;100779.63;;;23.95;88.57
16120;BME280;12670;53.502;10.252;2023-06-26T06:18:38;100784.19;;;23.94;89.30
16120;BME280;12670;53.502;10.252;2023-06-26T06:21:41;100778.19;;;24.01;89.03
16120;BME280;12670;53.502;10.252;2023-06-26T06:24:44;100776.41;;;24.09;89.60
16120;BME280;12670;53.502;10.252;2023-06-26T06:27:47;100780.66;;;24.22;91.13
16120;BME280;12670;53.502;10.252;2023-06-26T06:30:49;100769.19;;;24.28;89.73
16120;BME280;12670;53.502;10.252;2023-06-26T06:33:54;100768.00;;;24.40;88.52
16120;BME280;12670;53.502;10.252;2023-06-26T06:36:57;100759.94;;;24.48;86.20
16120;BME280;12670;53.502;10.252;2023-06-26T06:39:59;100765.84;;;24.61;87.00
16120;BME280;12670;53.502;10.252;2023-06-26T06:43:02;100763.44;;;24.76;88.83
16120;BME280;12670;53.502;10.252;2023-06-26T06:46:05;100760.97;;;24.83;86.16
16120;BME280;12670;53.502;10.252;2023-06-26T06:49:09;100762.50;;;24.67;83.48
16120;BME280;12670;53.502;10.252;2023-06-26T06:52:12;100752.50;;;24.86;83.51
16120;BME280;12670;53.502;10.252;2023-06-26T06:55:14;100755.28;;;24.94;85.25
16120;BME280;12670;53.502;10.252;2023-06-26T06:58:17;100736.50;;;25.00;84.29
16120;BME280;12670;53.502;10.252;2023-06-26T07:01:20;100742.28;;;25.15;86.40
16120;BME280;12670;53.502;10.252;2023-06-26T07:04:24;100731.50;;;25.32;85.87
16120;BME280;12670;53.502;10.252;2023-06-26T07:07:29;100723.72;;;25.37;85.04
16120;BME280;12670;53.502;10.252;2023-06-26T07:10:33;100725.03;;;25.50;80.75
16120;BME280;12670;53.502;10.252;2023-06-26T07:13:35;100718.78;;;25.58;83.64
16120;BME280;12670;53.502;10.252;2023-06-26T07:16:38;100724.94;;;25.68;82.11
16120;BME280;12670;53.502;10.252;2023-06-26T07:19:42;100718.44;;;25.87;85.07
16120;BME280;12670;53.502;10.252;2023-06-26T07:22:45;100720.34;;;26.03;81.42
16120;BME280;12670;53.502;10.252;2023-06-26T07:25:48;100724.41;;;25.99;76.19
16120;BME280;12670;53.502;10.252;2023-06-26T07:28:51;100732.09;;;26.03;74.31
16120;BME280;12670;53.502;10.252;2023-06-26T07:31:53;100712.94;;;26.21;78.45
16120;BME280;12670;53.502;10.252;2023-06-26T07:34:57;100713.78;;;26.22;78.19
16120;BME280;12670;53.502;10.252;2023-06-26T07:38:00;100715.03;;;26.44;72.76
16120;BME280;12670;53.502;10.252;2023-06-26T07:41:03;100708.59;;;26.61;76.37
16120;BME280;12670;53.502;10.252;2023-06-26T07:44:06;100706.22;;;26.66;75.59
16120;BME280;12670;53.502;10.252;2023-06-26T07:47:08;100703.34;;;26.92;73.27
16120;BME280;12670;53.502;10.252;2023-06-26T07:50:13;100701.78;;;26.90;72.41
16120;BME280;12670;53.502;10.252;2023-06-26T07:53:20;100712.00;;;27.04;74.93
16120;BME280;12670;53.502;10.252;2023-06-26T07:56:23;100712.00;;;27.20;78.05
16120;BME280;12670;53.502;10.252;2023-06-26T07:59:27;100701.41;;;27.42;77.37
16120;BME280;12670;53.502;10.252;2023-06-26T08:02:30;100705.84;;;27.34;70.42
16120;BME280;12670;53.502;10.252;2023-06-26T08:05:34;100707.91;;;27.32;69.51
16120;BME280;12670;53.502;10.252;2023-06-26T08:08:37;100703.56;;;27.54;72.49
16120;BME280;12670;53.502;10.252;2023-06-26T08:11:40;100703.41;;;27.56;72.83
16120;BME280;12670;53.502;10.252;2023-06-26T08:14:42;100707.06;;;27.87;71.33
16120;BME280;12670;53.502;10.252;2023-06-26T08:17:45;100698.13;;;28.02;71.04
16120;BME280;12670;53.502;10.252;2023-06-26T08:20:49;100697.06;;;28.11;66.40
16120;BME280;12670;53.502;10.252;2023-06-26T08:23:52;100687.97;;;27.87;68.19
16120;BME280;12670;53.502;10.252;2023-06-26T08:26:54;100680.31;;;27.83;67.30
16120;BME280;12670;53.502;10.252;2023-06-26T08:29:57;100681.63;;;27.95;66.64
16120;BME280;12670;53.502;10.252;2023-06-26T08:33:00;100672.31;;;28.12;69.39
16120;BME280;12670;53.502;10.252;2023-06-26T08:36:04;100670.03;;;28.24;67.65
16120;BME280;12670;53.502;10.252;2023-06-26T08:39:08;100673.41;;;28.34;63.80
16120;BME280;12670;53.502;10.252;2023-06-26T08:42:11;100669.84;;;28.34;62.18
16120;BME280;12670;53.502;10.252;2023-06-26T08:45:14;100658.41;;;28.53;67.80
16120;BME280;12670;53.502;10.252;2023-06-26T08:48:17;100664.72;;;28.54;58.99
16120;BME280;12670;53.502;10.252;2023-06-26T08:51:23;100660.03;;;28.85;63.05
16120;BME280;12670;53.502;10.252;2023-06-26T08:54:29;100675.72;;;28.46;60.64
16120;BME280;12670;53.502;10.252;2023-06-26T08:57:33;100676.22;;;28.18;61.23
16120;BME280;12670;53.502;10.252;2023-06-26T09:00:36;100675.09;;;28.35;60.29
16120;BME280;12670;53.502;10.252;2023-06-26T09:03:39;100683.34;;;28.19;59.60
16120;BME280;12670;53.502;10.252;2023-06-26T09:06:45;100681.38;;;28.44;59.67
16120;BME280;12670;53.502;10.252;2023-06-26T09:09:48;100683.06;;;28.45;60.20
16120;BME280;12670;53.502;10.252;2023-06-26T09:12:50;100679.19;;;28.31;60.47
16120;BME280;12670;53.502;10.252;2023-06-26T09:15:54;100688.94;;;28.57;61.05
16120;BME280;12670;53.502;10.252;2023-06-26T09:18:57;100696.19;;;28.41;62.28
16120;BME280;12670;53.502;10.252;2023-06-26T09:22:02;100686.19;;;28.80;66.45
16120;BME280;12670;53.502;10.252;2023-06-26T09:25:05;100698.75;;;28.43;59.36
16120;BME280;12670;53.502;10.252;2023-06-26T09:28:08;100709.13;;;28.48;62.20
16120;BME280;12670;53.502;10.252;2023-06-26T09:31:12;100709.34;;;28.61;63.99
16120;BME280;12670;53.502;10.252;2023-06-26T09:34:32;100718.69;;;28.43;63.02
16120;BME280;12670;53.502;10.252;2023-06-26T09:37:36;100721.25;;;28.45;64.27
16120;BME280;12670;53.502;10.252;2023-06-26T09:40:39;100731.56;;;28.81;63.34
16120;BME280;12670;53.502;10.252;2023-06-26T09:43:46;100720.84;;;29.17;62.98
16120;BME280;12670;53.502;10.252;2023-06-26T09:46:49;100734.50;;;28.79;62.66
16120;BME280;12670;53.502;10.252;2023-06-26T09:49:52;100725.16;;;28.51;61.92
16120;BME280;12670;53.502;10.252;2023-06-26T09:52:57;100731.69;;;28.64;64.67
16120;BME280;12670;53.502;10.252;2023-06-26T09:56:05;100742.38;;;28.51;64.57
16120;BME280;12670;53.502;10.252;2023-06-26T09:59:08;100745.94;;;28.21;65.81
16120;BME280;12670;53.502;10.252;2023-06-26T10:02:11;100756.75;;;28.06;65.82
16120;BME280;12670;53.502;10.252;2023-06-26T10:05:14;100759.50;;;27.98;66.39
16120;BME280;12670;53.502;10.252;2023-06-26T10:08:18;100771.50;;;27.80;68.40
16120;BME280;12670;53.502;10.252;2023-06-26T10:11:22;100769.53;;;27.33;67.53
16120;BME280;12670;53.502;10.252;2023-06-26T10:14:26;100771.22;;;26.94;68.71
16120;BME280;12670;53.502;10.252;2023-06-26T10:17:34;100770.50;;;26.59;70.40
16120;BME280;12670;53.502;10.252;2023-06-26T10:20:37;100777.13;;;26.14;71.51
16120;BME280;12670;53.502;10.252;2023-06-26T10:23:44;100786.00;;;26.16;74.23
16120;BME280;12670;53.502;10.252;2023-06-26T10:26:50;100792.75;;;26.04;74.09
16120;BME280;12670;53.502;10.252;2023-06-26T10:29:55;100811.28;;;25.74;75.06
16120;BME280;12670;53.502;10.252;2023-06-26T10:32:59;100825.75;;;25.57;77.34
16120;BME280;12670;53.502;10.252;2023-06-26T10:36:13;100843.91;;;25.03;83.48
16120;BME280;12670;53.502;10.252;2023-06-26T10:39:18;100883.50;;;24.23;100.00
16120;BME280;12670;53.502;10.252;2023-06-26T10:42:34;100908.31;;;23.52;100.00
16120;BME280;12670;53.502;10.252;2023-06-26T10:45:43;100928.50;;;22.90;100.00
16120;BME280;12670;53.502;10.252;2023-06-26T10:48:56;100941.63;;;23.04;100.00
16120;BME280;12670;53.502;10.252;2023-06-26T10:52:01;100923.09;;;23.09;100.00
16120;BME280;12670;53.502;10.252;2023-06-26T10:55:08;100922.13;;;23.10;100.00
16120;BME280;12670;53.502;10.252;2023-06-26T10:58:30;100918.69;;;23.08;100.00
16120;BME280;12670;53.502;10.252;2023-06-26T11:01:40;100921.97;;;23.02;100.00
16120;BME280;12670;53.502;10.252;2023-06-26T11:04:45;100919.66;;;22.88;100.00
16120;BME280;12670;53.502;10.252;2023-06-26T11:08:03;100919.91;;;22.75;100.00
16120;BME280;12670;53.502;10.252;2023-06-26T11:11:07;100916.44;;;22.64;100.00
16120;BME280;12670;53.502;10.252;2023-06-26T11:14:11;100907.34;;;22.65;100.00
16120;BME280;12670;53.502;10.252;2023-06-26T11:17:13;100906.47;;;22.64;100.00
16120;BME280;12670;53.502;10.252;2023-06-26T11:20:18;100916.44;;;22.64;100.00
16120;BME280;12670;53.502;10.252;2023-06-26T11:23:22;100931.03;;;22.51;100.00
16120;BME280;12670;53.502;10.252;2023-06-26T11:26:28;100939.19;;;22.61;100.00
16120;BME280;12670;53.502;10.252;2023-06-26T11:29:31;100939.19;;;22.61;100.00
16120;BME280;12670;53.502;10.252;2023-06-26T11:32:36;100951.16;;;22.58;100.00
16120;BME280;12670;53.502;10.252;2023-06-26T11:35:39;100961.25;;;22.87;100.00
16120;BME280;12670;53.502;10.252;2023-06-26T11:38:41;100957.31;;;22.80;100.00
16120;BME280;12670;53.502;10.252;2023-06-26T11:41:45;100959.25;;;22.89;100.00
16120;BME280;12670;53.502;10.252;2023-06-26T11:44:48;100961.44;;;23.14;100.00
16120;BME280;12670;53.502;10.252;2023-06-26T11:47:51;100974.50;;;23.69;100.00
16120;BME280;12670;53.502;10.252;2023-06-26T11:50:54;100970.97;;;24.15;100.00
16120;BME280;12670;53.502;10.252;2023-06-26T11:53:57;100961.28;;;24.23;100.00
16120;BME280;12670;53.502;10.252;2023-06-26T11:57:01;100967.09;;;24.75;100.00
16120;BME280;12670;53.502;10.252;2023-06-26T12:00:13;100963.66;;;24.45;100.00
16120;BME280;12670;53.502;10.252;2023-06-26T12:03:17;100977.28;;;24.90;100.00
16120;BME280;12670;53.502;10.252;2023-06-26T12:06:20;100982.19;;;24.87;100.00
16120;BME280;12670;53.502;10.252;2023-06-26T12:09:23;100968.06;;;24.46;100.00
16120;BME280;12670;53.502;10.252;2023-06-26T12:12:27;100979.63;;;24.48;100.00
16120;BME280;12670;53.502;10.252;2023-06-26T12:15:30;100974.25;;;24.66;100.00
16120;BME280;12670;53.502;10.252;2023-06-26T12:18:34;100976.81;;;24.67;100.00
16120;BME280;12670;53.502;10.252;2023-06-26T12:21:47;100977.81;;;24.19;100.00
16120;BME280;12670;53.502;10.252;2023-06-26T12:24:56;100982.00;;;24.04;100.00
16120;BME280;12670;53.502;10.252;2023-06-26T12:28:00;100988.69;;;23.61;96.75
16120;BME280;12670;53.502;10.252;2023-06-26T12:31:21;100992.38;;;23.51;96.04
16120;BME280;12670;53.502;10.252;2023-06-26T12:34:35;100994.03;;;23.63;99.37
16120;BME280;12670;53.502;10.252;2023-06-26T12:37:38;100989.88;;;23.88;100.00
16120;BME280;12670;53.502;10.252;2023-06-26T12:40:46;100993.28;;;24.00;100.00
16120;BME280;12670;53.502;10.252;2023-06-26T12:43:56;100986.41;;;24.05;100.00
16120;BME280;12670;53.502;10.252;2023-06-26T12:47:00;100999.38;;;24.11;100.00
16120;BME280;12670;53.502;10.252;2023-06-26T12:50:05;100997.53;;;24.12;100.00
16120;BME280;12670;53.502;10.252;2023-06-26T12:53:08;101001.91;;;24.42;100.00
16120;BME280;12670;53.502;10.252;2023-06-26T12:56:11;100991.28;;;24.86;100.00
16120;BME280;12670;53.502;10.252;2023-06-26T12:59:15;100999.94;;;24.71;93.12
16120;BME280;12670;53.502;10.252;2023-06-26T13:02:18;101000.34;;;24.77;94.91
16120;BME280;12670;53.502;10.252;2023-06-26T13:05:21;101000.03;;;24.52;88.54
16120;BME280;12670;53.502;10.252;2023-06-26T13:08:24;101001.06;;;24.79;91.67
16120;BME280;12670;53.502;10.252;2023-06-26T13:11:27;101002.75;;;24.42;78.69
16120;BME280;12670;53.502;10.252;2023-06-26T13:14:31;101006.81;;;24.66;84.14
16120;BME280;12670;53.502;10.252;2023-06-26T13:17:34;101008.06;;;24.15;80.02
16120;BME280;12670;53.502;10.252;2023-06-26T13:20:37;101010.03;;;24.52;84.20
16120;BME280;12670;53.502;10.252;2023-06-26T13:23:40;101007.50;;;24.40;77.75
16120;BME280;12670;53.502;10.252;2023-06-26T13:26:43;101004.78;;;24.40;73.70
16120;BME280;12670;53.502;10.252;2023-06-26T13:29:47;101014.88;;;24.85;75.31
16120;BME280;12670;53.502;10.252;2023-06-26T13:32:49;101009.00;;;24.90;72.94
16120;BME280;12670;53.502;10.252;2023-06-26T13:35:52;101008.19;;;24.80;67.96
16120;BME280;12670;53.502;10.252;2023-06-26T13:38:55;100998.53;;;24.95;68.44
16120;BME280;12670;53.502;10.252;2023-06-26T13:41:58;100989.69;;;24.65;70.88
16120;BME280;12670;53.502;10.252;2023-06-26T13:45:04;100988.34;;;24.52;71.66
16120;BME280;12670;53.502;10.252;2023-06-26T13:48:16;100997.78;;;24.38;69.40
16120;BME280;12670;53.502;10.252;2023-06-26T13:51:19;101000.03;;;24.52;68.43
16120;BME280;12670;53.502;10.252;2023-06-26T13:54:22;101014.09;;;24.65;68.64
16120;BME280;12670;53.502;10.252;2023-06-26T13:57:25;101003.44;;;25.19;68.98
16120;BME280;12670;53.502;10.252;2023-06-26T14:00:30;101006.03;;;25.56;69.18
16120;BME280;12670;53.502;10.252;2023-06-26T14:03:33;101014.50;;;25.35;67.61
16120;BME280;12670;53.502;10.252;2023-06-26T14:06:35;101015.06;;;25.39;69.71
16120;BME280;12670;53.502;10.252;2023-06-26T14:09:38;101009.19;;;25.16;64.33
16120;BME280;12670;53.502;10.252;2023-06-26T14:12:41;101012.25;;;24.66;67.98
16120;BME280;12670;53.502;10.252;2023-06-26T14:15:45;101026.19;;;24.81;67.79
16120;BME280;12670;53.502;10.252;2023-06-26T14:18:47;101034.59;;;24.40;63.62
16120;BME280;12670;53.502;10.252;2023-06-26T14:21:51;101033.78;;;24.11;63.23
16120;BME280;12670;53.502;10.252;2023-06-26T14:24:53;101030.88;;;24.32;64.15
16120;BME280;12670;53.502;10.252;2023-06-26T14:27:58;101026.06;;;24.06;62.69
16120;BME280;12670;53.502;10.252;2023-06-26T14:31:02;101022.19;;;24.18;65.15
16120;BME280;12670;53.502;10.252;2023-06-26T14:34:05;101022.63;;;24.33;63.43
16120;BME280;12670;53.502;10.252;2023-06-26T14:37:07;101026.03;;;24.26;63.67
16120;BME280;12670;53.502;10.252;2023-06-26T14:40:11;101025.75;;;24.29;64.72
16120;BME280;12670;53.502;10.252;2023-06-26T14:43:15;101047.75;;;24.16;64.58
16120;BME280;12670;53.502;10.252;2023-06-26T14:46:19;101059.56;;;24.15;65.62
16120;BME280;12670;53.502;10.252;2023-06-26T14:49:22;101049.03;;;24.12;62.73
16120;BME280;12670;53.502;10.252;2023-06-26T14:52:25;101047.75;;;24.06;64.70
16120;BME280;12670;53.502;10.252;2023-06-26T14:55:27;101056.03;;;23.95;64.91
16120;BME280;12670;53.502;10.252;2023-06-26T14:58:30;101050.91;;;23.63;63.92
16120;BME280;12670;53.502;10.252;2023-06-26T15:01:34;101052.59;;;23.74;63.60
16120;BME280;12670;53.502;10.252;2023-06-26T15:04:37;101043.22;;;23.87;66.55
16120;BME280;12670;53.502;10.252;2023-06-26T15:07:39;101048.91;;;23.94;64.82
16120;BME280;12670;53.502;10.252;2023-06-26T15:10:42;101051.16;;;23.79;65.86
16120;BME280;12670;53.502;10.252;2023-06-26T15:13:45;101043.84;;;23.60;64.87
16120;BME280;12670;53.502;10.252;2023-06-26T15:16:49;101052.28;;;23.57;63.19
16120;BME280;12670;53.502;10.252;2023-06-26T15:19:51;101050.38;;;23.38;60.93
16120;BME280;12670;53.502;10.252;2023-06-26T15:22:57;101042.53;;;23.45;58.50
16120;BME280;12670;53.502;10.252;2023-06-26T15:26:00;101065.09;;;23.46;58.45
16120;BME280;12670;53.502;10.252;2023-06-26T15:29:03;101056.66;;;23.49;58.12
16120;BME280;12670;53.502;10.252;2023-06-26T15:32:08;101067.31;;;23.31;58.60
16120;BME280;12670;53.502;10.252;2023-06-26T15:35:10;101052.41;;;22.96;60.95
16120;BME280;12670;53.502;10.252;2023-06-26T15:38:13;101061.31;;;23.18;62.44
16120;BME280;12670;53.502;10.252;2023-06-26T15:41:16;101048.59;;;22.78;61.91
16120;BME280;12670;53.502;10.252;2023-06-26T15:44:18;101054.38;;;22.94;61.81